Time;durP1;ratioP1;P1;durP2;ratioP2;P2;SDS_P1;SDS_P2;PMS_P1;PMS_P2;Temp;Humidity;BMP_temperature;BMP_pressure;BME280_temperature;BME280_humidity;BME280_pressure;Samples;Min_cycle;Max_cycle;Signal;HPM_P1;HPM_P2
2024/02/27 00:03:49;;;;;;;25.98;13.15;;;;;;;10.26;67.96;99675.75;10264582;28;20043;-60
2024/02/27 00:08:50;;;;;;;23.05;13.32;;;;;;;10.29;67.70;99691.50;10262672;28;20051;-62
2024/02/27 00:13:51;;;;;;;29.30;13.20;;;;;;;10.32;67.89;99699.19;10262685;28;20050;-60
2024/02/27 00:18:53;;;;;;;23.27;12.63;;;;;;;10.35;67.68;99698.81;10262150;28;20059;-61
2024/02/27 00:23:54;;;;;;;22.60;12.63;;;;;;;10.37;67.63;99699.47;10261023;28;20043;-60
2024/02/27 00:28:56;;;;;;;27.30;13.50;;;;;;;10.40;67.50;99704.44;10260480;28;20051;-61
2024/02/27 00:33:57;;;;;;;23.10;13.60;;;;;;;10.38;67.87;99717.22;10260994;28;20041;-62
2024/02/27 00:38:59;;;;;;;26.30;13.80;;;;;;;10.37;67.93;99728.16;10262915;28;20055;-60
2024/02/27 00:44:00;;;;;;;23.65;12.38;;;;;;;10.37;67.82;99739.75;10257525;28;20132;-61
2024/02/27 00:49:02;;;;;;;18.85;11.25;;;;;;;10.34;67.60;99745.50;10266471;28;20126;-60
2024/02/27 00:54:04;;;;;;;21.73;13.32;;;;;;;10.30;68.10;99746.91;10257815;28;20066;-60
2024/02/27 00:59:05;;;;;;;23.20;12.85;;;;;;;10.27;67.60;99745.41;10256849;28;20110;-59
2024/02/27 01:04:07;;;;;;;23.42;13.40;;;;;;;10.21;68.13;99742.63;10257615;28;20043;-60
2024/02/27 01:09:08;;;;;;;26.75;13.57;;;;;;;10.16;67.98;99748.56;10256221;28;20564;-60
2024/02/27 01:14:10;;;;;;;25.85;13.95;;;;;;;10.05;68.06;99757.94;10260936;28;20058;-60
2024/02/27 01:19:11;;;;;;;24.42;12.73;;;;;;;10.00;67.97;99754.16;10259083;28;20301;-60
2024/02/27 01:24:13;;;;;;;25.10;13.02;;;;;;;9.91;67.94;99758.78;10255542;28;20050;-60
2024/02/27 01:29:14;;;;;;;24.02;12.75;;;;;;;9.90;67.83;99743.69;10258836;28;20058;-60
2024/02/27 01:34:15;;;;;;;26.77;12.52;;;;;;;9.81;68.09;99753.69;10260058;28;20035;-60
2024/02/27 01:39:17;;;;;;;23.65;12.18;;;;;;;9.73;68.07;99756.47;10263955;28;20541;-60
2024/02/27 01:44:19;;;;;;;20.58;12.65;;;;;;;9.69;67.98;99761.38;10260437;28;20508;-60
2024/02/27 01:49:21;;;;;;;25.38;13.00;;;;;;;9.61;68.08;99764.16;10261181;28;20054;-60
2024/02/27 01:54:24;;;;;;;23.42;13.10;;;;;;;9.53;68.22;99746.28;10268246;28;20043;-60
2024/02/27 01:59:26;;;;;;;22.40;11.82;;;;;;;9.43;68.48;99752.94;10270927;28;20466;-60
2024/02/27 02:04:30;;;;;;;22.77;11.70;;;;;;;9.39;68.46;99749.78;10268627;28;20039;-60
2024/02/27 02:09:32;;;;;;;23.65;12.45;;;;;;;9.35;68.19;99767.28;10272838;28;20069;-60
2024/02/27 02:14:34;;;;;;;22.30;11.00;;;;;;;9.29;68.20;99768.81;10271628;28;20634;-60
2024/02/27 02:19:35;;;;;;;23.13;10.73;;;;;;;9.26;68.45;99773.72;10271768;28;20050;-60
2024/02/27 02:24:37;;;;;;;21.27;11.15;;;;;;;9.27;68.25;99773.53;10273071;28;20109;-60
2024/02/27 02:29:39;;;;;;;22.98;12.35;;;;;;;9.21;68.13;99776.13;10268249;28;20051;-60
2024/02/27 02:34:40;;;;;;;22.75;10.95;;;;;;;9.19;68.45;99781.66;10270238;28;20047;-60
2024/02/27 02:39:42;;;;;;;22.52;12.23;;;;;;;9.15;67.99;99775.00;10271637;28;20120;-60
2024/02/27 02:44:43;;;;;;;20.10;11.77;;;;;;;9.06;68.00;99787.66;10270653;28;20138;-60
2024/02/27 02:49:45;;;;;;;20.35;11.35;;;;;;;9.02;68.13;99780.94;10271703;28;20051;-60
2024/02/27 02:54:46;;;;;;;21.92;12.13;;;;;;;8.95;68.36;99781.88;10276599;28;20133;-59
2024/02/27 02:59:48;;;;;;;25.60;13.13;;;;;;;8.90;68.44;99793.94;10267371;28;20046;-60
2024/02/27 03:04:49;;;;;;;21.02;11.65;;;;;;;8.88;68.27;99795.16;10260353;28;20510;-60
2024/02/27 03:09:51;;;;;;;19.83;11.57;;;;;;;8.84;68.25;99799.19;10261474;28;20571;-60
2024/02/27 03:14:52;;;;;;;21.95;12.75;;;;;;;8.77;68.03;99808.94;10249289;28;20049;-59
2024/02/27 03:19:54;;;;;;;23.38;11.88;;;;;;;8.74;68.19;99810.97;10262302;28;20043;-59
2024/02/27 03:24:55;;;;;;;23.58;11.63;;;;;;;8.71;68.42;99810.53;10263088;28;20078;-60
2024/02/27 03:29:57;;;;;;;23.13;12.05;;;;;;;8.67;68.21;99814.56;10264331;28;20047;-59
2024/02/27 03:34:59;;;;;;;23.27;12.77;;;;;;;8.62;68.36;99820.44;10255723;28;20106;-60
2024/02/27 03:40:00;;;;;;;23.55;11.30;;;;;;;8.57;68.41;99832.69;10260578;28;20047;-60
2024/02/27 03:45:02;;;;;;;18.48;10.82;;;;;;;8.58;68.30;99837.03;10261840;28;20047;-60
2024/02/27 03:50:04;;;;;;;24.35;10.85;;;;;;;8.53;68.02;99845.59;10263872;28;20098;-59
2024/02/27 03:55:06;;;;;;;19.35;9.88;;;;;;;8.46;68.36;99840.09;10261168;28;20134;-60
2024/02/27 04:00:09;;;;;;;23.35;10.13;;;;;;;8.46;67.95;99844.63;10252914;28;20101;-60
2024/02/27 04:05:10;;;;;;;21.17;11.13;;;;;;;8.42;68.04;99852.19;10259092;28;20390;-60
2024/02/27 04:10:12;;;;;;;22.50;10.63;;;;;;;8.39;68.23;99865.88;10258092;28;20576;-58
2024/02/27 04:15:14;;;;;;;20.02;10.10;;;;;;;8.35;68.29;99867.22;10256563;28;20188;-58
2024/02/27 04:20:15;;;;;;;23.00;10.52;;;;;;;8.36;68.15;99876.13;10259730;28;20091;-58
2024/02/27 04:25:17;;;;;;;19.52;10.25;;;;;;;8.29;68.02;99884.84;10263813;28;20047;-59
2024/02/27 04:30:18;;;;;;;20.38;10.93;;;;;;;8.27;67.98;99886.88;10260517;28;20142;-59
2024/02/27 04:35:19;;;;;;;18.00;9.52;;;;;;;8.21;68.17;99890.22;10264200;28;20054;-58
2024/02/27 04:40:21;;;;;;;20.15;10.43;;;;;;;8.22;68.67;99886.53;10262366;28;21158;-57
2024/02/27 04:45:22;;;;;;;19.58;10.48;;;;;;;8.23;68.28;99885.53;10260571;28;20077;-58
2024/02/27 04:50:24;;;;;;;21.90;10.55;;;;;;;8.21;68.15;99892.06;10263558;28;20058;-58
2024/02/27 04:55:26;;;;;;;22.83;10.73;;;;;;;8.18;68.38;99900.44;10260811;28;20672;-58
2024/02/27 05:00:28;;;;;;;20.02;11.27;;;;;;;8.16;68.37;99907.81;10260082;28;20113;-58
2024/02/27 05:05:29;;;;;;;18.77;10.00;;;;;;;8.14;68.33;99924.06;10256855;28;20442;-58
2024/02/27 05:10:32;;;;;;;19.17;10.18;;;;;;;8.13;68.63;99920.50;10256706;28;20086;-59
2024/02/27 05:15:34;;;;;;;22.23;9.93;;;;;;;8.14;68.38;99932.06;10257860;28;20055;-59
2024/02/27 05:20:35;;;;;;;22.90;10.27;;;;;;;8.08;68.83;99930.91;10262496;28;20418;-58
2024/02/27 05:25:37;;;;;;;20.73;10.15;;;;;;;8.04;68.24;99923.41;10255229;28;20049;-59
2024/02/27 05:30:38;;;;;;;22.77;10.75;;;;;;;7.99;68.57;99947.16;10257336;28;20055;-59
2024/02/27 05:35:40;;;;;;;19.65;10.90;;;;;;;8.00;68.77;99960.38;10257877;28;20058;-58
2024/02/27 05:40:42;;;;;;;21.52;10.25;;;;;;;7.99;69.16;99969.41;10262728;28;20042;-59
2024/02/27 05:45:43;;;;;;;22.27;9.23;;;;;;;7.98;68.91;99985.63;10257049;28;20529;-59
2024/02/27 05:50:45;;;;;;;21.17;9.65;;;;;;;7.98;68.81;99990.97;10256699;28;20074;-59
2024/02/27 05:55:47;;;;;;;18.98;9.68;;;;;;;7.96;68.51;100012.56;10256923;28;20074;-58
2024/02/27 06:00:48;;;;;;;22.23;10.25;;;;;;;8.03;68.81;100020.75;10254417;28;20047;-59
2024/02/27 06:05:51;;;;;;;18.60;9.70;;;;;;;8.01;68.42;100018.25;10256932;28;20074;-58
2024/02/27 06:10:52;;;;;;;22.40;9.90;;;;;;;8.02;68.49;100019.09;10260722;28;20071;-58
2024/02/27 06:15:54;;;;;;;17.80;10.15;;;;;;;8.05;68.56;100024.09;10287705;28;20098;-63
2024/02/27 06:26:16;;;;;;;22.92;10.90;;;;;;;8.09;67.93;100042.31;10293064;28;20070;-62
2024/02/27 06:31:18;;;;;;;23.70;11.02;;;;;;;8.04;68.42;100039.34;10304833;28;20102;-64
2024/02/27 06:36:22;;;;;;;23.48;11.18;;;;;;;8.09;68.33;100054.88;10311294;28;20055;-61
2024/02/27 06:41:24;;;;;;;21.10;10.07;;;;;;;8.13;68.33;100064.25;10296515;28;20062;-59
2024/02/27 06:46:27;;;;;;;20.10;9.82;;;;;;;8.08;68.38;100063.94;10289291;28;20077;-62
2024/02/27 06:51:33;;;;;;;26.70;11.30;;;;;;;8.05;68.72;100070.44;10294699;28;20065;-62
2024/02/27 06:56:35;;;;;;;20.58;9.82;;;;;;;8.00;68.90;100067.44;10280166;28;20600;-61
2024/02/27 07:01:36;;;;;;;21.80;10.10;;;;;;;8.04;68.60;100060.75;10290503;28;20051;-62
2024/02/27 07:06:38;;;;;;;17.58;9.50;;;;;;;8.09;68.47;100065.59;10294724;28;20066;-64
2024/02/27 07:11:42;;;;;;;22.52;10.15;;;;;;;8.05;68.44;100078.47;10302532;28;20067;-62
2024/02/27 07:16:44;;;;;;;20.48;10.32;;;;;;;8.09;68.71;100073.63;10301648;28;20061;-60
2024/02/27 07:28:02;;;;;;;21.17;10.55;;;;;;;8.26;69.12;100074.47;10304420;28;20046;-63
2024/02/27 07:33:04;;;;;;;21.73;10.85;;;;;;;8.34;68.82;100086.00;10291161;28;20046;-60
2024/02/27 07:38:06;;;;;;;18.83;9.18;;;;;;;8.46;69.17;100089.22;10310671;28;20055;-65
2024/02/27 07:43:07;;;;;;;21.02;9.73;;;;;;;8.58;68.62;100088.88;10313782;28;20104;-63
2024/02/27 07:48:09;;;;;;;21.55;10.55;;;;;;;8.64;68.67;100105.09;10307852;28;20046;-63
2024/02/27 07:53:11;;;;;;;17.30;9.32;;;;;;;8.74;68.64;100102.22;10311572;28;20027;-63
2024/02/27 07:58:14;;;;;;;19.70;8.98;;;;;;;8.77;68.43;100099.22;10301662;28;20106;-64
2024/02/27 08:03:15;;;;;;;19.58;9.20;;;;;;;8.86;68.19;100108.91;10291354;28;20130;-63
2024/02/27 08:08:17;;;;;;;17.73;8.52;;;;;;;8.96;68.10;100118.63;10308880;28;20054;-63
2024/02/27 08:13:19;;;;;;;14.98;8.38;;;;;;;8.94;67.88;100108.06;10316110;28;20610;-62
2024/02/27 08:18:24;;;;;;;15.75;8.65;;;;;;;9.00;67.98;100104.69;10315748;28;20058;-62
2024/02/27 08:23:26;;;;;;;14.40;7.72;;;;;;;8.91;67.83;100111.91;10316426;28;20023;-63
2024/02/27 08:28:27;;;;;;;15.95;8.07;;;;;;;8.95;67.72;100106.22;10309019;28;20045;-62
2024/02/27 08:33:29;;;;;;;16.92;8.30;;;;;;;9.05;67.63;100110.38;10314639;28;20547;-62
2024/02/27 08:38:31;;;;;;;14.85;7.57;;;;;;;9.04;67.72;100121.28;10313400;28;20095;-62
2024/02/27 08:43:32;;;;;;;15.20;7.63;;;;;;;9.09;67.33;100124.28;10310486;28;20057;-63
2024/02/27 08:48:34;;;;;;;16.25;8.45;;;;;;;9.17;67.29;100113.53;10307203;28;20054;-64
2024/02/27 08:53:36;;;;;;;13.20;7.38;;;;;;;9.20;67.10;100126.59;10409647;22;20072;-91
2024/02/27 08:58:38;;;;;;;13.85;8.20;;;;;;;9.39;66.80;100125.34;10432106;28;20033;-91
2024/02/27 09:03:41;;;;;;;14.57;7.32;;;;;;;9.51;66.55;100118.56;10383839;28;20045;-91
2024/02/27 09:08:42;;;;;;;10.65;6.25;;;;;;;9.57;66.60;100114.38;10388496;28;20108;-89
2024/02/27 09:13:44;;;;;;;13.50;7.72;;;;;;;9.75;66.43;100113.28;10403332;28;20053;-90
2024/02/27 09:18:49;;;;;;;13.55;7.20;;;;;;;9.90;65.73;100116.88;10426319;28;20033;-91
2024/02/27 09:24:08;;;;;;;10.88;7.03;;;;;;;10.01;65.48;100108.41;10408383;28;20063;-90
2024/02/27 09:51:01;;;;;;;12.32;7.00;;;;;;;10.52;64.39;100097.97;11681552;23;20058;-91
2024/02/27 10:01:44;;;;;;;12.60;6.82;;;;;;;10.71;63.97;100104.66;2680244;26;20275;-94
2024/02/27 10:06:48;;;;;;;10.30;5.93;;;;;;;10.89;63.35;100107.00;10297463;28;20067;-61
2024/02/27 10:11:50;;;;;;;14.70;7.10;;;;;;;11.14;62.57;100109.44;10294642;28;20059;-62
2024/02/27 10:16:51;;;;;;;15.57;6.65;;;;;;;11.36;62.53;100113.03;10302384;28;20046;-62
2024/02/27 10:21:54;;;;;;;10.75;5.93;;;;;;;11.44;62.09;100128.25;10301548;28;20054;-62
2024/02/27 10:26:57;;;;;;;8.45;5.80;;;;;;;11.39;62.46;100131.50;10295758;28;20051;-62
2024/02/27 10:31:59;;;;;;;17.95;7.05;;;;;;;11.55;62.01;100133.16;10335806;28;20059;-63
2024/02/27 10:37:02;;;;;;;12.57;6.80;;;;;;;11.57;61.58;100141.91;10353119;28;20038;-63
2024/02/27 10:42:04;;;;;;;11.25;6.00;;;;;;;11.64;61.87;100148.19;10355522;28;20043;-63
2024/02/27 10:47:07;;;;;;;10.90;6.53;;;;;;;11.77;61.42;100144.84;10352254;28;20038;-63
2024/02/27 10:52:10;;;;;;;9.23;5.70;;;;;;;11.92;61.01;100144.81;10346487;28;20114;-62
2024/02/27 10:57:13;;;;;;;9.40;5.45;;;;;;;12.02;60.62;100150.72;10348900;28;20037;-63
2024/02/27 11:02:20;;;;;;;8.90;5.75;;;;;;;12.09;60.76;100165.13;10343204;28;20035;-63
2024/02/27 11:07:23;;;;;;;13.77;6.78;;;;;;;12.39;59.99;100158.78;10673984;23;20054;-89
2024/02/27 11:12:29;;;;;;;12.00;6.53;;;;;;;12.44;59.34;100165.28;10396370;23;20113;-62
2024/02/27 11:17:43;;;;;;;10.48;5.25;;;;;;;12.57;59.29;100164.53;10408801;28;20045;-62
2024/02/27 11:22:45;;;;;;;10.50;6.80;;;;;;;12.58;59.42;100159.97;10404461;28;20042;-62
2024/02/27 11:27:47;;;;;;;10.07;6.07;;;;;;;12.58;59.22;100146.50;10429578;28;20050;-67
2024/02/27 11:32:49;;;;;;;10.25;5.90;;;;;;;12.60;59.29;100156.09;10373167;28;20061;-63
2024/02/27 11:37:52;;;;;;;14.23;6.43;;;;;;;12.71;58.84;100146.63;10371205;28;20049;-63
2024/02/27 11:42:55;;;;;;;14.38;6.43;;;;;;;12.96;58.43;100140.81;10365391;28;20056;-63
2024/02/27 11:47:57;;;;;;;12.90;5.85;;;;;;;13.01;58.34;100143.72;10365852;28;20070;-60
2024/02/27 11:52:59;;;;;;;10.60;6.50;;;;;;;13.14;57.68;100133.03;10365497;28;20068;-60
2024/02/27 11:58:02;;;;;;;12.68;6.57;;;;;;;13.13;57.67;100138.63;10366071;28;20054;-61
2024/02/27 12:03:07;;;;;;;13.38;7.53;;;;;;;13.22;57.51;100134.75;10366309;28;20088;-63
2024/02/27 12:08:09;;;;;;;14.18;7.43;;;;;;;13.67;56.69;100122.53;10370043;28;20042;-58
2024/02/27 12:13:10;;;;;;;8.98;5.60;;;;;;;16.32;51.38;100104.44;10366970;28;20138;-62
2024/02/27 12:18:12;;;;;;;9.10;5.82;;;;;;;19.80;44.28;100080.25;10365736;28;20085;-63
2024/02/27 12:23:13;;;;;;;8.18;5.32;;;;;;;17.75;48.53;100095.28;10363668;28;20042;-61
2024/02/27 12:28:17;;;;;;;9.82;5.45;;;;;;;16.44;51.07;100106.22;10361910;28;20049;-61
2024/02/27 12:33:20;;;;;;;9.05;6.05;;;;;;;15.81;52.06;100107.03;10361971;28;20046;-59
2024/02/27 12:38:21;;;;;;;8.00;5.07;;;;;;;15.44;52.38;100106.78;10370129;28;20897;-62
2024/02/27 12:43:23;;;;;;;10.30;6.10;;;;;;;15.42;52.14;100098.03;10362758;28;20489;-63
2024/02/27 12:48:24;;;;;;;10.07;5.20;;;;;;;15.32;52.36;100094.09;10363131;28;20038;-59
2024/02/27 12:53:26;;;;;;;7.93;5.15;;;;;;;15.34;51.71;100102.84;10339117;28;20054;-60
2024/02/27 12:58:28;;;;;;;7.82;5.13;;;;;;;15.26;51.96;100107.47;10355528;28;20038;-60
2024/02/27 13:03:29;;;;;;;8.38;5.85;;;;;;;15.46;51.34;100093.00;10354160;28;20042;-62
2024/02/27 13:08:31;;;;;;;10.80;5.28;;;;;;;16.73;49.18;100089.50;10355702;28;20105;-62
2024/02/27 13:13:33;;;;;;;7.32;5.65;;;;;;;20.04;42.55;100072.78;10354083;28;20065;-64
2024/02/27 13:18:35;;;;;;;10.93;5.65;;;;;;;23.67;36.70;100060.50;10352468;28;20049;-62
2024/02/27 13:23:37;;;;;;;9.25;5.53;;;;;;;25.89;33.15;100065.47;10347894;28;20164;-62
2024/02/27 13:28:38;;;;;;;7.80;4.75;;;;;;;26.28;32.64;100072.91;10352302;28;20612;-63
2024/02/27 13:33:40;;;;;;;7.65;5.32;;;;;;;26.16;32.85;100067.75;10322566;28;20469;-66
2024/02/27 13:38:41;;;;;;;5.93;5.00;;;;;;;26.52;32.18;100071.06;10333087;28;20074;-67
2024/02/27 13:43:43;;;;;;;7.40;5.47;;;;;;;24.93;34.07;100080.13;10335196;28;20416;-67
2024/02/27 13:48:44;;;;;;;7.18;4.88;;;;;;;24.69;34.26;100068.91;10334519;28;20133;-68
2024/02/27 13:53:46;;;;;;;10.75;5.18;;;;;;;24.58;33.93;100070.00;10336661;28;20529;-68
2024/02/27 13:58:48;;;;;;;9.27;5.53;;;;;;;23.82;34.51;100068.00;10337987;28;20056;-68
2024/02/27 14:03:49;;;;;;;5.97;4.78;;;;;;;23.62;33.96;100055.00;10321118;28;20050;-68
2024/02/27 14:08:51;;;;;;;6.05;5.32;;;;;;;22.82;34.82;100041.47;10337747;28;20081;-69
2024/02/27 14:13:52;;;;;;;9.80;5.78;;;;;;;22.36;35.41;100048.28;10336224;28;20062;-67
2024/02/27 14:19:01;;;;;;;7.50;5.43;;;;;;;21.86;35.48;100052.19;10339247;28;20144;-66
2024/02/27 14:24:02;;;;;;;7.78;5.07;;;;;;;21.74;35.71;100060.53;10340432;28;20050;-67
2024/02/27 14:29:04;;;;;;;9.45;5.55;;;;;;;21.98;35.38;100063.78;10331010;28;20050;-66
2024/02/27 14:34:05;;;;;;;9.98;6.15;;;;;;;21.68;35.76;100071.66;10339354;28;20904;-68
2024/02/27 14:39:07;;;;;;;8.30;6.90;;;;;;;20.82;36.78;100081.19;10334252;28;20046;-68
2024/02/27 14:44:09;;;;;;;8.02;5.78;;;;;;;20.53;36.92;100080.44;10335681;28;20050;-65
2024/02/27 14:49:11;;;;;;;10.65;5.97;;;;;;;19.86;38.31;100081.19;10336051;28;20051;-64
2024/02/27 14:54:13;;;;;;;8.85;5.63;;;;;;;19.35;39.17;100083.69;10331625;28;20050;-64
2024/02/27 14:59:15;;;;;;;10.55;6.15;;;;;;;19.18;39.43;100081.69;10338350;28;20051;-64
2024/02/27 15:04:17;;;;;;;8.32;5.65;;;;;;;18.73;39.91;100082.28;10341601;28;20042;-65
2024/02/27 15:09:18;;;;;;;8.82;6.18;;;;;;;17.72;41.43;100094.91;10339607;28;20579;-65
2024/02/27 15:14:20;;;;;;;9.75;6.65;;;;;;;16.91;42.33;100097.72;10340338;28;20058;-64
2024/02/27 15:19:21;;;;;;;11.00;6.90;;;;;;;16.53;42.92;100092.38;10340724;28;20054;-62
2024/02/27 15:24:23;;;;;;;12.27;7.25;;;;;;;15.90;44.04;100085.94;10342026;28;20050;-64
2024/02/27 15:29:24;;;;;;;10.13;6.60;;;;;;;15.42;44.82;100094.47;10337021;28;20050;-62
2024/02/27 15:34:26;;;;;;;9.48;6.40;;;;;;;15.81;44.30;100090.78;10340893;28;20568;-61
2024/02/27 15:39:28;;;;;;;9.50;6.55;;;;;;;16.01;44.16;100096.06;10338555;28;20074;-63
2024/02/27 15:44:33;;;;;;;9.23;5.97;;;;;;;15.93;44.69;100090.09;10346226;28;20054;-62
2024/02/27 15:49:34;;;;;;;9.85;5.90;;;;;;;16.15;44.15;100090.59;10346507;28;20048;-64
2024/02/27 15:54:36;;;;;;;9.02;5.97;;;;;;;16.20;44.10;100102.44;10347442;28;20096;-63
2024/02/27 15:59:38;;;;;;;10.55;6.30;;;;;;;16.10;44.43;100098.56;10350090;28;20081;-60
2024/02/27 16:04:46;;;;;;;7.95;5.65;;;;;;;15.64;45.13;100103.97;10349590;28;20050;-60
2024/02/27 16:09:47;;;;;;;11.50;6.22;;;;;;;15.42;45.45;100108.00;10349238;28;20477;-61
2024/02/27 16:14:49;;;;;;;12.82;6.05;;;;;;;15.07;46.09;100121.88;10348924;28;20137;-59
2024/02/27 16:19:51;;;;;;;9.63;5.45;;;;;;;14.66;46.87;100125.66;10349063;28;20057;-61
2024/02/27 16:24:53;;;;;;;12.05;6.68;;;;;;;14.32;47.28;100132.88;10345933;28;20141;-59
2024/02/27 16:29:54;;;;;;;10.85;6.70;;;;;;;14.13;47.80;100139.09;10343501;28;20053;-60
2024/02/27 16:34:56;;;;;;;11.82;6.88;;;;;;;13.76;48.33;100157.47;10350506;28;20100;-61
2024/02/27 16:39:57;;;;;;;10.13;6.18;;;;;;;13.45;49.05;100169.59;10350026;28;20105;-61
2024/02/27 16:44:59;;;;;;;11.10;6.45;;;;;;;13.15;49.69;100188.69;10355688;28;20057;-61
2024/02/27 16:50:00;;;;;;;12.35;6.47;;;;;;;12.90;50.09;100189.09;10346511;28;20053;-61
2024/02/27 16:55:02;;;;;;;13.23;7.40;;;;;;;12.62;50.56;100196.34;10350567;28;20053;-63
2024/02/27 17:00:05;;;;;;;11.35;7.50;;;;;;;12.36;51.43;100211.22;10348510;28;20046;-62
2024/02/27 17:05:09;;;;;;;10.80;7.78;;;;;;;12.17;51.44;100219.94;10316597;28;20046;-62
2024/02/27 17:10:11;;;;;;;14.50;8.13;;;;;;;11.96;51.99;100229.59;10339037;28;20046;-64
2024/02/27 17:15:12;;;;;;;14.05;8.32;;;;;;;11.70;52.86;100244.38;10333968;28;20046;-63
2024/02/27 17:20:14;;;;;;;13.02;7.35;;;;;;;11.54;52.82;100249.13;10335649;28;20536;-62
2024/02/27 17:25:15;;;;;;;12.90;7.65;;;;;;;11.41;53.12;100263.19;10336309;28;20046;-61
2024/02/27 17:30:17;;;;;;;13.77;7.88;;;;;;;11.21;54.02;100266.41;10336024;28;20446;-62
2024/02/27 17:35:18;;;;;;;14.23;7.95;;;;;;;11.04;54.12;100267.59;10331458;28;20042;-62
2024/02/27 17:40:20;;;;;;;12.68;7.72;;;;;;;10.88;54.80;100273.91;10334894;28;20050;-57
2024/02/27 17:45:21;;;;;;;14.85;8.25;;;;;;;10.71;55.13;100287.47;10337470;28;20046;-57
2024/02/27 17:50:23;;;;;;;14.60;7.57;;;;;;;10.61;55.58;100294.13;10333307;28;20065;-57
2024/02/27 17:55:24;;;;;;;16.38;8.10;;;;;;;10.50;55.35;100298.88;10316748;28;20054;-57
2024/02/27 18:00:26;;;;;;;16.40;8.27;;;;;;;10.42;55.73;100301.59;10331370;28;20053;-58
2024/02/27 18:05:27;;;;;;;13.30;8.25;;;;;;;10.33;55.93;100308.03;10335451;28;20051;-60
2024/02/27 18:10:29;;;;;;;15.90;8.65;;;;;;;10.23;56.47;100310.91;10336049;28;20050;-58
2024/02/27 18:15:30;;;;;;;14.82;8.40;;;;;;;10.12;56.35;100313.97;10342712;28;20053;-58
2024/02/27 18:20:32;;;;;;;12.82;7.47;;;;;;;10.05;56.83;100324.56;10333047;28;20584;-57
2024/02/27 18:25:36;;;;;;;14.85;7.55;;;;;;;9.95;57.13;100336.50;10339825;28;20039;-58
2024/02/27 18:30:38;;;;;;;15.38;8.57;;;;;;;9.92;57.09;100330.47;10336246;28;20045;-57
2024/02/27 18:35:42;;;;;;;15.40;8.45;;;;;;;9.86;57.22;100333.03;10343568;28;20433;-58
2024/02/27 18:40:43;;;;;;;13.77;7.47;;;;;;;9.80;57.39;100331.03;10347873;28;20045;-58
2024/02/27 18:45:45;;;;;;;13.40;6.85;;;;;;;9.73;57.28;100339.78;10340153;28;20049;-58
2024/02/27 18:50:47;;;;;;;12.32;7.57;;;;;;;9.69;57.34;100345.63;10340030;28;20140;-59
2024/02/27 18:55:49;;;;;;;12.35;7.32;;;;;;;9.63;57.70;100343.63;10341453;28;20550;-57
2024/02/27 19:00:50;;;;;;;12.32;6.70;;;;;;;9.60;57.76;100355.56;10340546;28;20053;-57
2024/02/27 19:05:52;;;;;;;14.95;6.72;;;;;;;9.53;57.84;100359.91;10344534;28;20046;-57
2024/02/27 19:10:54;;;;;;;14.82;5.95;;;;;;;9.50;57.86;100376.34;10346806;28;20061;-58
2024/02/27 19:15:55;;;;;;;10.23;6.00;;;;;;;9.46;57.95;100378.53;10341986;28;20053;-58
2024/02/27 19:20:57;;;;;;;12.52;6.03;;;;;;;9.42;57.84;100381.69;10346755;28;20217;-58
2024/02/27 19:25:58;;;;;;;11.68;5.95;;;;;;;9.39;58.17;100379.38;10333833;28;20046;-58
2024/02/27 19:31:00;;;;;;;11.75;6.22;;;;;;;9.32;58.28;100390.78;10339143;28;20062;-58
2024/02/27 19:36:03;;;;;;;12.48;6.97;;;;;;;9.28;58.18;100384.06;10342227;28;20104;-58
2024/02/27 19:41:04;;;;;;;12.27;6.35;;;;;;;9.23;58.34;100383.72;10337597;28;20061;-57
2024/02/27 19:46:15;;;;;;;9.50;5.55;;;;;;;9.18;58.70;100391.41;10338842;28;20046;-58
2024/02/27 19:51:16;;;;;;;;;;;;;;;9.10;58.38;100394.94;10344338;28;20072;-58
2024/02/27 19:56:18;;;;;;;12.43;6.55;;;;;;;9.08;58.38;100396.09;10339311;28;19925;-58
2024/02/27 20:01:19;;;;;;;11.73;6.43;;;;;;;9.04;58.71;100398.25;10336817;28;20417;-59
2024/02/27 20:06:23;;;;;;;12.50;5.95;;;;;;;9.00;58.81;100401.44;10342876;28;20053;-58
2024/02/27 20:11:24;;;;;;;14.68;7.45;;;;;;;8.95;59.02;100393.91;10339205;28;20080;-58
2024/02/27 20:16:26;;;;;;;14.70;7.30;;;;;;;8.92;59.28;100389.69;10337153;28;20095;-60
2024/02/27 20:21:28;;;;;;;14.18;6.88;;;;;;;8.90;59.37;100401.59;10346531;28;20081;-58
2024/02/27 20:26:30;;;;;;;11.85;7.35;;;;;;;8.85;59.41;100407.44;10345367;28;20142;-57
2024/02/27 20:31:31;;;;;;;12.93;6.75;;;;;;;8.79;59.68;100409.94;10342464;28;20046;-59
2024/02/27 20:36:37;;;;;;;11.63;6.55;;;;;;;8.75;59.65;100409.44;10341452;28;20046;-59
2024/02/27 20:41:38;;;;;;;12.40;6.85;;;;;;;8.68;59.90;100411.09;10339236;28;20493;-60
2024/02/27 20:46:40;;;;;;;13.10;7.07;;;;;;;8.64;59.93;100410.56;10329129;28;20050;-60
2024/02/27 20:51:41;;;;;;;15.63;8.13;;;;;;;8.59;60.01;100418.25;10333153;28;20422;-59
2024/02/27 20:56:42;;;;;;;13.95;7.57;;;;;;;8.54;60.21;100421.41;10331608;28;20460;-60
2024/02/27 21:01:45;;;;;;;12.43;7.20;;;;;;;8.51;60.30;100431.59;10338168;28;20053;-59
2024/02/27 21:06:46;;;;;;;16.02;8.07;;;;;;;8.46;60.45;100429.41;10337302;28;20046;-60
2024/02/27 21:11:48;;;;;;;13.43;7.38;;;;;;;8.43;60.57;100443.13;10317051;28;20140;-60
2024/02/27 21:16:49;;;;;;;14.27;7.63;;;;;;;8.40;60.42;100451.44;10298567;28;20054;-59
2024/02/27 21:21:51;;;;;;;14.45;8.15;;;;;;;8.32;60.88;100449.56;10286951;28;20046;-59
2024/02/27 21:26:52;;;;;;;17.67;7.88;;;;;;;8.28;61.02;100460.75;10299940;28;20046;-60
2024/02/27 21:31:53;;;;;;;14.23;7.82;;;;;;;8.22;60.71;100464.91;10296698;28;20070;-59
2024/02/27 21:36:57;;;;;;;16.50;8.20;;;;;;;8.17;61.17;100467.22;10295197;28;20049;-59
2024/02/27 21:41:59;;;;;;;15.25;7.95;;;;;;;8.13;60.80;100460.50;10299703;28;20058;-57
2024/02/27 21:47:00;;;;;;;13.07;7.28;;;;;;;8.07;61.19;100461.13;10299092;28;20540;-58
2024/02/27 21:52:01;;;;;;;15.65;7.82;;;;;;;8.03;60.82;100465.94;10291124;28;20429;-57
2024/02/27 21:57:05;;;;;;;14.88;7.60;;;;;;;8.01;61.18;100467.09;10294233;28;20607;-57
2024/02/27 22:02:06;;;;;;;16.35;8.60;;;;;;;7.86;61.10;100467.69;10295747;28;20406;-58
2024/02/27 22:07:07;;;;;;;18.70;9.70;;;;;;;7.85;60.94;100473.19;10296266;28;20046;-57
2024/02/27 22:12:09;;;;;;;17.10;8.18;;;;;;;7.80;61.23;100479.00;10302994;28;20049;-58
2024/02/27 22:17:10;;;;;;;16.90;8.35;;;;;;;7.70;60.89;100487.13;10305022;28;20046;-57
2024/02/27 22:22:12;;;;;;;17.35;9.25;;;;;;;7.61;61.06;100495.22;10305617;28;20408;-58
2024/02/27 22:27:14;;;;;;;19.40;9.50;;;;;;;7.51;61.58;100501.47;10307659;28;20046;-57
2024/02/27 22:32:15;;;;;;;15.90;7.95;;;;;;;7.39;61.77;100516.06;10307914;28;20054;-58
2024/02/27 22:37:17;;;;;;;14.18;7.72;;;;;;;7.24;62.12;100510.38;10302925;28;20050;-57
2024/02/27 22:42:18;;;;;;;20.42;9.65;;;;;;;7.13;61.75;100510.63;10309186;28;20042;-57
2024/02/27 22:47:20;;;;;;;23.33;11.50;;;;;;;6.89;62.58;100503.13;10306527;28;20050;-58
2024/02/27 22:52:21;;;;;;;23.98;10.80;;;;;;;6.68;63.22;100504.22;10303177;28;20043;-57
2024/02/27 22:57:23;;;;;;;20.13;10.18;;;;;;;6.52;63.33;100507.50;10305027;28;20043;-57
2024/02/27 23:02:25;;;;;;;19.05;9.30;;;;;;;6.49;63.54;100512.28;10300866;28;20054;-58
2024/02/27 23:07:27;;;;;;;15.50;8.98;;;;;;;6.52;64.03;100515.50;10305440;28;20135;-58
2024/02/27 23:12:29;;;;;;;19.10;9.20;;;;;;;6.55;63.36;100517.03;10301447;28;20046;-57
2024/02/27 23:17:31;;;;;;;16.88;8.23;;;;;;;6.57;63.19;100516.91;10297191;28;20097;-58
2024/02/27 23:22:32;;;;;;;19.73;8.88;;;;;;;6.55;62.85;100520.53;10301409;28;20059;-57
2024/02/27 23:27:34;;;;;;;20.60;9.05;;;;;;;6.59;62.97;100528.28;10303934;28;20046;-57
2024/02/27 23:32:38;;;;;;;21.65;9.48;;;;;;;6.62;63.38;100520.00;10300797;28;20050;-58
2024/02/27 23:37:45;;;;;;;19.73;9.18;;;;;;;6.59;63.67;100523.78;10304264;28;20078;-58
2024/02/27 23:42:47;;;;;;;16.98;8.57;;;;;;;6.55;64.14;100535.75;10303999;28;20058;-58